createdAt,value
2018-05-10T00:00:17.127Z,-60
2018-05-10T00:10:18.227Z,-60
2018-05-10T00:20:17.170Z,-61
2018-05-10T00:30:18.170Z,-61
2018-05-10T00:40:17.182Z,-60
2018-05-10T00:50:18.053Z,-60
2018-05-10T01:00:17.130Z,-60
2018-05-10T01:10:17.173Z,-60
2018-05-10T01:20:17.197Z,-59
2018-05-10T01:30:17.253Z,-61
2018-05-10T01:40:17.173Z,-61
2018-05-10T01:50:17.124Z,-60
2018-05-10T02:00:17.140Z,-61
2018-05-10T02:10:17.163Z,-60
2018-05-10T02:20:18.142Z,-60
2018-05-10T02:30:17.131Z,-61
2018-05-10T02:40:17.156Z,-60
2018-05-10T02:50:17.149Z,-61
2018-05-10T03:00:27.709Z,-59
2018-05-10T03:10:18.150Z,-60
2018-05-10T03:20:17.140Z,-60
2018-05-10T03:30:17.119Z,-60
2018-05-10T03:40:17.169Z,-60
2018-05-10T03:50:26.747Z,-59
2018-05-10T04:10:41.888Z,-58
2018-05-10T04:20:39.611Z,-59
2018-05-10T04:30:17.199Z,-59
2018-05-10T04:40:25.542Z,-59
2018-05-10T04:50:17.136Z,-59
2018-05-10T05:10:17.152Z,-60
2018-05-10T05:20:21.444Z,-59
2018-05-10T05:40:19.216Z,-58
2018-05-10T06:00:48.023Z,-57
2018-05-10T06:10:17.113Z,-58
2018-05-10T06:20:17.153Z,-60
2018-05-10T06:30:20.979Z,-59
2018-05-10T06:40:42.301Z,-58
2018-05-10T06:50:17.173Z,-58
2018-05-10T07:00:41.648Z,-60
2018-05-10T07:10:28.734Z,-60
2018-05-10T07:20:17.207Z,-59
2018-05-10T07:30:17.174Z,-60
2018-05-10T07:40:17.240Z,-60
2018-05-10T07:50:22.349Z,-60
2018-05-10T08:00:17.169Z,-60
2018-05-10T08:10:44.513Z,-60
2018-05-10T08:20:17.190Z,-59
2018-05-10T08:40:44.267Z,-59
2018-05-10T08:50:53.889Z,-58
2018-05-10T09:00:28.687Z,-59
2018-05-10T09:30:31.699Z,-60
2018-05-10T09:40:34.259Z,-59
2018-05-10T09:50:22.555Z,-60
2018-05-10T10:00:53.614Z,-59
2018-05-10T10:10:24.337Z,-60
2018-05-10T10:20:35.653Z,-59
2018-05-10T10:30:25.670Z,-60
2018-05-10T10:50:38.510Z,-59
2018-05-10T11:00:18.267Z,-59
2018-05-10T11:30:18.173Z,-59
2018-05-10T12:40:18.744Z,-61
2018-05-10T12:50:23.300Z,-59
2018-05-10T13:00:18.229Z,-61
2018-05-10T13:10:17.301Z,-61
2018-05-10T13:20:17.425Z,-60
2018-05-10T13:30:20.982Z,-61
2018-05-10T13:40:18.119Z,-59
2018-05-10T13:50:17.474Z,-61
2018-05-10T14:00:17.548Z,-60
2018-05-10T14:10:17.459Z,-65
2018-05-10T14:20:17.603Z,-64
2018-05-10T14:30:17.411Z,-67
2018-05-10T14:40:17.379Z,-67
2018-05-10T14:50:17.369Z,-67
2018-05-10T15:00:17.169Z,-69
2018-05-10T15:10:17.374Z,-68
2018-05-10T15:20:17.221Z,-68
2018-05-10T15:30:17.263Z,-66
2018-05-10T15:40:17.393Z,-66
2018-05-10T15:50:17.356Z,-67
2018-05-10T16:00:17.343Z,-68
2018-05-10T16:10:17.421Z,-67
2018-05-10T16:20:17.402Z,-66
2018-05-10T16:30:18.466Z,-65
2018-05-10T16:40:18.420Z,-66
2018-05-10T16:50:17.452Z,-72
2018-05-10T17:00:17.475Z,-72
2018-05-10T17:10:17.472Z,-71
2018-05-10T17:20:17.320Z,-67
2018-05-10T17:30:17.753Z,-67
2018-05-10T17:40:18.260Z,-63
2018-05-10T17:50:17.388Z,-66
2018-05-10T18:00:17.359Z,-66
2018-05-10T18:10:17.539Z,-63
2018-05-10T18:20:17.222Z,-69
2018-05-10T18:30:18.371Z,-66
2018-05-10T18:40:17.186Z,-63
2018-05-10T18:50:17.179Z,-62
2018-05-10T19:00:17.188Z,-60
2018-05-10T19:10:17.329Z,-62
2018-05-10T19:20:17.265Z,-68
2018-05-10T19:30:17.323Z,-64
2018-05-10T19:40:17.279Z,-59
2018-05-10T19:50:17.235Z,-60
2018-05-10T20:00:17.643Z,-64
2018-05-10T20:10:17.267Z,-62
2018-05-10T20:20:17.230Z,-62
2018-05-10T20:30:17.733Z,-64
2018-05-10T20:40:17.288Z,-65
2018-05-10T20:50:21.986Z,-57
2018-05-10T21:00:17.196Z,-60
2018-05-10T21:10:17.275Z,-61
2018-05-10T21:20:23.012Z,-74
2018-05-10T21:30:17.224Z,-61
2018-05-10T21:40:17.160Z,-60
2018-05-10T21:50:17.176Z,-58
2018-05-10T22:00:17.208Z,-60
2018-05-10T22:10:17.349Z,-57
2018-05-10T22:20:17.341Z,-57
2018-05-10T22:30:17.266Z,-58
2018-05-10T22:40:17.467Z,-57
2018-05-10T22:50:17.211Z,-58
2018-05-10T23:00:17.345Z,-58
2018-05-10T23:10:17.281Z,-58
2018-05-10T23:20:17.371Z,-57
2018-05-10T23:30:17.329Z,-57
2018-05-10T23:40:17.203Z,-57
2018-05-10T23:50:17.222Z,-57
